createdAt,value
2019-04-16T00:01:53.694Z,46.55
2019-04-16T00:04:53.711Z,46.51
2019-04-16T00:07:41.021Z,46.67
2019-04-16T00:10:31.127Z,46.45
2019-04-16T00:13:09.186Z,46.52
2019-04-16T00:15:41.332Z,46.64
2019-04-16T00:18:11.536Z,46.74
2019-04-16T00:20:55.504Z,46.50
2019-04-16T00:23:37.009Z,46.63
2019-04-16T00:26:07.813Z,46.62
2019-04-16T00:28:38.140Z,46.44
2019-04-16T00:31:08.492Z,46.56
2019-04-16T00:33:39.392Z,46.72
2019-04-16T00:36:10.787Z,46.77
2019-04-16T00:38:41.344Z,46.63
2019-04-16T00:41:11.673Z,46.69
2019-04-16T00:43:44.165Z,46.67
2019-04-16T00:46:15.857Z,46.81
2019-04-16T00:48:46.532Z,46.56
2019-04-16T00:51:17.824Z,46.63
2019-04-16T00:53:48.140Z,46.58
2019-04-16T00:56:18.445Z,46.59
2019-04-16T00:58:49.324Z,46.57
2019-04-16T01:01:22.956Z,46.46
2019-04-16T01:03:53.301Z,46.38
2019-04-16T01:06:25.661Z,46.66
2019-04-16T01:08:56.018Z,46.61
2019-04-16T01:11:26.377Z,46.51
2019-04-16T01:13:56.762Z,46.47
2019-04-16T01:16:27.036Z,46.44
2019-04-16T01:18:57.345Z,46.39
2019-04-16T01:21:28.531Z,46.37
2019-04-16T01:23:58.755Z,46.38
2019-04-16T01:26:29.054Z,46.33
2019-04-16T01:29:04.603Z,46.40
2019-04-16T01:31:59.895Z,46.44
2019-04-16T01:34:52.198Z,46.24
2019-04-16T01:37:57.433Z,46.39
2019-04-16T01:40:39.627Z,46.34
2019-04-16T01:43:10.007Z,46.30
2019-04-16T01:45:40.272Z,46.29
2019-04-16T01:48:10.667Z,46.42
2019-04-16T01:50:43.561Z,46.53
2019-04-16T01:53:13.145Z,46.30
2019-04-16T01:55:43.440Z,46.34
2019-04-16T01:58:13.786Z,46.32
2019-04-16T02:00:44.098Z,46.12
2019-04-16T02:03:17.500Z,46.30
2019-04-16T02:05:46.437Z,45.99
2019-04-16T02:08:16.730Z,45.97
2019-04-16T02:10:47.065Z,45.83
2019-04-16T02:13:17.333Z,46.08
2019-04-16T02:15:47.617Z,45.94
2019-04-16T02:18:19.405Z,45.83
2019-04-16T02:20:49.733Z,45.94
2019-04-16T02:23:20.055Z,45.92
2019-04-16T02:25:51.365Z,45.91
2019-04-16T02:28:22.247Z,45.90
2019-04-16T02:30:52.629Z,45.81
2019-04-16T02:33:22.926Z,45.75
2019-04-16T02:35:53.262Z,45.79
2019-04-16T02:38:23.450Z,45.82
2019-04-16T02:40:53.773Z,45.85
2019-04-16T02:43:24.239Z,45.71
2019-04-16T02:45:58.393Z,45.77
2019-04-16T02:48:26.498Z,45.60
2019-04-16T02:51:05.312Z,45.48
2019-04-16T02:53:49.069Z,45.32
2019-04-16T02:56:39.144Z,45.15
2019-04-16T02:59:31.463Z,44.51
2019-04-16T03:02:35.520Z,44.08
2019-04-16T03:05:21.317Z,43.47
2019-04-16T03:07:51.667Z,43.60
2019-04-16T03:10:21.941Z,43.49
2019-04-16T03:12:52.934Z,43.37
2019-04-16T03:15:42.218Z,43.34
2019-04-16T03:18:15.233Z,43.35
2019-04-16T03:20:45.103Z,43.35
2019-04-16T03:23:16.928Z,43.33
2019-04-16T03:25:47.239Z,43.43
2019-04-16T03:28:17.508Z,43.58
2019-04-16T03:30:48.037Z,43.54
2019-04-16T03:33:18.395Z,43.52
2019-04-16T03:35:48.903Z,43.59
2019-04-16T03:38:19.534Z,43.66
2019-04-16T03:40:49.865Z,43.60
2019-04-16T03:43:20.274Z,43.58
2019-04-16T03:45:50.560Z,43.64
2019-04-16T03:48:23.453Z,43.66
2019-04-16T03:50:52.932Z,43.59
2019-04-16T03:53:23.265Z,43.57
2019-04-16T03:55:58.293Z,43.51
2019-04-16T03:58:26.689Z,43.54
2019-04-16T04:00:56.944Z,43.57
2019-04-16T04:03:27.171Z,43.57
2019-04-16T04:05:57.864Z,43.55
2019-04-16T04:08:28.181Z,43.58
2019-04-16T04:10:58.470Z,43.52
2019-04-16T04:13:28.805Z,43.53
2019-04-16T04:16:01.686Z,43.60
2019-04-16T04:18:31.601Z,43.64
2019-04-16T04:21:04.022Z,43.56
2019-04-16T04:23:34.341Z,43.54
2019-04-16T04:26:05.476Z,43.55
2019-04-16T04:28:36.841Z,43.45
2019-04-16T04:31:07.154Z,43.50
2019-04-16T04:33:43.102Z,43.43
2019-04-16T04:36:13.104Z,43.39
2019-04-16T04:38:43.386Z,43.45
2019-04-16T04:41:13.842Z,43.44
2019-04-16T04:43:44.134Z,43.36
2019-04-16T04:46:15.319Z,43.36
2019-04-16T04:48:45.989Z,43.39
2019-04-16T04:51:16.379Z,43.37
2019-04-16T04:53:47.524Z,43.33
2019-04-16T04:56:19.617Z,43.39
2019-04-16T04:58:50.272Z,43.39
2019-04-16T05:01:20.574Z,43.44
2019-04-16T05:04:12.963Z,43.41
2019-04-16T05:06:43.944Z,43.49
2019-04-16T05:09:14.299Z,43.39
2019-04-16T05:11:48.481Z,43.25
2019-04-16T05:14:19.286Z,43.25
2019-04-16T05:16:49.609Z,43.28
2019-04-16T05:19:19.897Z,43.46
2019-04-16T05:21:50.875Z,43.57
2019-04-16T05:24:21.200Z,43.54
2019-04-16T05:26:51.475Z,43.60
2019-04-16T05:29:21.735Z,43.65
2019-04-16T05:31:54.477Z,43.92
2019-04-16T05:34:25.714Z,43.97
2019-04-16T05:36:56.046Z,43.78
2019-04-16T05:39:29.477Z,43.68
2019-04-16T05:41:59.698Z,43.65
2019-04-16T05:44:33.048Z,43.58
2019-04-16T05:47:02.290Z,43.54
2019-04-16T05:49:34.882Z,43.38
2019-04-16T05:52:05.235Z,43.18
2019-04-16T05:54:45.797Z,43.19
2019-04-16T05:57:25.657Z,43.17
2019-04-16T05:59:53.397Z,43.22
2019-04-16T06:02:29.226Z,43.02
2019-04-16T06:05:00.157Z,42.69
2019-04-16T06:07:38.010Z,42.91
2019-04-16T06:10:16.704Z,42.97
2019-04-16T06:13:12.628Z,43.03
2019-04-16T06:15:59.066Z,43.02
2019-04-16T06:18:37.984Z,43.07
2019-04-16T06:21:29.824Z,43.10
2019-04-16T06:24:28.160Z,42.41
2019-04-16T06:27:26.140Z,42.54
2019-04-16T06:30:15.708Z,42.66
2019-04-16T06:32:57.901Z,42.67
2019-04-16T06:36:02.315Z,42.74
2019-04-16T06:38:45.253Z,42.82
2019-04-16T06:41:41.568Z,42.88
2019-04-16T06:44:09.585Z,42.78
2019-04-16T06:47:01.555Z,42.85
2019-04-16T06:49:43.676Z,42.84
2019-04-16T06:52:35.914Z,42.84
2019-04-16T06:55:36.021Z,42.82
2019-04-16T06:58:27.212Z,42.82
2019-04-16T07:01:13.198Z,42.85
2019-04-16T07:04:06.572Z,42.86
2019-04-16T07:06:54.923Z,42.88
2019-04-16T07:09:41.917Z,42.96
2019-04-16T07:12:16.037Z,42.94
2019-04-16T07:14:48.360Z,42.91
2019-04-16T07:17:19.637Z,43.01
2019-04-16T07:19:50.088Z,42.95
2019-04-16T07:22:21.218Z,43.03
2019-04-16T07:24:56.451Z,43.03
2019-04-16T07:27:36.158Z,43.03
2019-04-16T07:30:28.623Z,42.96
2019-04-16T07:33:27.093Z,42.96
2019-04-16T07:36:12.493Z,43.13
2019-04-16T07:39:00.193Z,43.13
2019-04-16T07:41:36.431Z,43.08
2019-04-16T07:44:40.922Z,43.15
2019-04-16T07:47:30.638Z,43.11
2019-04-16T07:50:07.296Z,43.00
2019-04-16T07:52:51.770Z,38.52
2019-04-16T07:55:46.810Z,36.41
2019-04-16T07:58:17.584Z,36.66
2019-04-16T08:00:48.179Z,36.47
2019-04-16T08:03:18.510Z,36.42
2019-04-16T08:05:48.854Z,35.99
2019-04-16T08:08:24.354Z,35.85
2019-04-16T08:10:51.293Z,35.93
2019-04-16T08:13:23.914Z,35.46
2019-04-16T08:15:56.811Z,35.33
2019-04-16T08:18:26.960Z,35.34
2019-04-16T08:21:02.083Z,35.15
2019-04-16T08:23:38.939Z,35.15
2019-04-16T08:26:12.863Z,35.02
2019-04-16T08:28:42.101Z,34.83
2019-04-16T08:31:33.192Z,34.46
2019-04-16T08:34:03.392Z,34.31
2019-04-16T08:36:33.765Z,34.50
2019-04-16T08:39:06.496Z,34.14
2019-04-16T08:41:37.155Z,34.08
2019-04-16T08:44:10.104Z,33.80
2019-04-16T08:46:40.410Z,33.66
2019-04-16T08:49:14.718Z,33.51
2019-04-16T08:51:43.499Z,33.60
2019-04-16T08:54:17.895Z,33.49
2019-04-16T08:56:45.873Z,33.12
2019-04-16T08:59:16.188Z,32.93
2019-04-16T09:01:46.517Z,33.02
2019-04-16T09:04:16.933Z,33.13
2019-04-16T09:06:47.371Z,33.13
2019-04-16T09:09:28.345Z,33.11
2019-04-16T09:12:07.729Z,33.00
2019-04-16T09:14:41.073Z,33.05
2019-04-16T09:17:26.193Z,32.93
2019-04-16T09:20:13.664Z,32.74
2019-04-16T09:22:49.394Z,32.85
2019-04-16T09:25:42.579Z,32.97
2019-04-16T09:28:34.162Z,32.98
2019-04-16T09:31:35.446Z,32.94
2019-04-16T09:34:35.728Z,33.21
2019-04-16T09:37:16.783Z,32.90
2019-04-16T09:40:16.017Z,32.84
2019-04-16T09:42:36.960Z,33.08
2019-04-16T09:45:08.614Z,33.26
2019-04-16T09:47:38.953Z,33.30
2019-04-16T09:50:11.167Z,33.21
2019-04-16T09:52:41.296Z,33.24
2019-04-16T09:55:11.766Z,33.47
2019-04-16T09:57:43.391Z,33.43
2019-04-16T10:00:17.107Z,33.37
2019-04-16T10:02:48.527Z,33.21
2019-04-16T10:05:19.116Z,33.06
2019-04-16T10:07:49.403Z,33.21
2019-04-16T10:10:19.697Z,33.14
2019-04-16T10:12:50.135Z,33.41
2019-04-16T10:15:20.387Z,33.32
2019-04-16T10:17:50.652Z,33.30
2019-04-16T10:20:20.943Z,33.49
2019-04-16T10:22:51.209Z,33.37
2019-04-16T10:25:21.692Z,33.37
2019-04-16T10:27:54.724Z,33.62
2019-04-16T10:30:31.906Z,33.64
2019-04-16T10:33:03.374Z,33.65
2019-04-16T10:35:33.729Z,34.05
2019-04-16T10:38:13.894Z,33.49
2019-04-16T10:40:48.539Z,33.28
2019-04-16T10:43:44.699Z,33.23
2019-04-16T10:46:36.683Z,33.19
2019-04-16T10:49:21.471Z,33.45
2019-04-16T10:52:17.852Z,33.39
2019-04-16T10:55:04.966Z,33.27
2019-04-16T10:58:12.078Z,33.23
2019-04-16T11:00:59.811Z,32.97
2019-04-16T11:03:36.252Z,32.93
2019-04-16T11:06:13.280Z,32.77
2019-04-16T11:08:43.893Z,32.86
2019-04-16T11:11:14.241Z,32.86
2019-04-16T11:13:58.920Z,33.10
2019-04-16T11:16:19.781Z,33.07
2019-04-16T11:18:50.330Z,33.18
2019-04-16T11:21:20.598Z,32.95
2019-04-16T11:23:50.925Z,32.72
2019-04-16T11:26:21.267Z,32.82
2019-04-16T11:28:51.581Z,32.45
2019-04-16T11:31:22.501Z,32.58
2019-04-16T11:33:53.126Z,32.59
2019-04-16T11:36:24.421Z,32.64
2019-04-16T11:38:54.695Z,32.45
2019-04-16T11:41:25.007Z,32.06
2019-04-16T11:43:56.315Z,32.18
2019-04-16T11:46:26.666Z,31.95
2019-04-16T11:48:56.900Z,31.77
2019-04-16T11:51:27.281Z,31.85
2019-04-16T11:53:57.489Z,32.09
2019-04-16T11:56:27.802Z,32.03
2019-04-16T11:58:58.072Z,31.95
2019-04-16T12:02:02.171Z,32.03
2019-04-16T12:04:50.225Z,31.94
2019-04-16T12:07:47.154Z,32.06
2019-04-16T12:10:45.710Z,33.09
2019-04-16T12:13:42.454Z,33.39
2019-04-16T12:16:34.738Z,32.80
2019-04-16T12:19:28.341Z,32.68
2019-04-16T12:22:13.215Z,32.76
2019-04-16T12:25:02.418Z,33.09
2019-04-16T12:27:50.286Z,33.53
2019-04-16T12:30:51.426Z,33.71
2019-04-16T12:33:34.353Z,34.23
2019-04-16T12:36:22.133Z,34.48
2019-04-16T12:39:10.509Z,33.91
2019-04-16T12:42:00.454Z,34.38
2019-04-16T12:44:45.596Z,33.64
2019-04-16T12:47:33.483Z,33.55
2019-04-16T12:50:16.779Z,33.09
2019-04-16T12:53:20.650Z,33.47
2019-04-16T12:56:08.956Z,33.44
2019-04-16T12:59:06.666Z,33.58
2019-04-16T13:01:54.728Z,33.73
2019-04-16T13:04:45.670Z,34.47
2019-04-16T13:07:22.948Z,34.70
2019-04-16T13:10:04.863Z,34.96
2019-04-16T13:12:57.030Z,34.58
2019-04-16T13:15:55.536Z,34.19
2019-04-16T13:18:54.853Z,33.80
2019-04-16T13:21:32.086Z,34.15
2019-04-16T13:24:21.024Z,33.72
2019-04-16T13:27:19.123Z,33.61
2019-04-16T13:29:49.418Z,33.40
2019-04-16T13:32:19.957Z,33.64
2019-04-16T13:34:50.248Z,33.86
2019-04-16T13:37:20.567Z,33.76
2019-04-16T13:40:05.738Z,33.53
2019-04-16T13:42:36.055Z,33.82
2019-04-16T13:45:27.553Z,33.98
2019-04-16T13:48:13.864Z,33.78
2019-04-16T13:50:51.672Z,33.75
2019-04-16T13:53:37.429Z,33.17
2019-04-16T13:56:26.586Z,33.75
2019-04-16T13:59:02.095Z,33.76
2019-04-16T14:01:39.288Z,33.21
2019-04-16T14:04:08.246Z,33.44
2019-04-16T14:06:38.566Z,33.43
2019-04-16T14:09:09.408Z,34.37
2019-04-16T14:11:40.003Z,34.49
2019-04-16T14:14:10.265Z,34.29
2019-04-16T14:16:40.946Z,34.21
2019-04-16T14:19:12.758Z,34.51
2019-04-16T14:21:43.012Z,33.58
2019-04-16T14:24:13.363Z,33.92
2019-04-16T14:26:43.815Z,33.50
2019-04-16T14:29:14.103Z,33.74
2019-04-16T14:31:46.076Z,33.60
2019-04-16T14:34:23.632Z,33.98
2019-04-16T14:36:57.057Z,33.93
2019-04-16T14:39:32.386Z,33.82
2019-04-16T14:42:06.305Z,33.93
2019-04-16T14:44:44.030Z,33.89
2019-04-16T14:47:19.250Z,34.18
2019-04-16T14:49:50.820Z,34.30
2019-04-16T14:52:21.357Z,34.46
2019-04-16T14:54:58.622Z,34.73
2019-04-16T14:57:28.906Z,34.97
2019-04-16T15:00:09.145Z,35.20
2019-04-16T15:03:01.211Z,35.36
2019-04-16T15:05:38.797Z,35.55
2019-04-16T15:08:26.434Z,35.78
2019-04-16T15:11:14.022Z,35.97
2019-04-16T15:14:15.452Z,36.41
2019-04-16T15:17:13.647Z,36.58
2019-04-16T15:19:49.518Z,36.94
2019-04-16T15:22:33.328Z,37.32
2019-04-16T15:25:25.392Z,37.39
2019-04-16T15:28:17.485Z,35.93
2019-04-16T15:31:02.557Z,36.94
2019-04-16T15:33:38.986Z,37.14
2019-04-16T15:36:19.927Z,37.54
2019-04-16T15:39:15.059Z,37.41
2019-04-16T15:42:00.264Z,38.02
2019-04-16T15:45:01.360Z,37.86
2019-04-16T15:47:48.925Z,38.07
2019-04-16T15:50:25.759Z,38.81
2019-04-16T15:53:14.279Z,38.46
2019-04-16T15:56:01.683Z,38.59
2019-04-16T15:58:39.420Z,38.42
2019-04-16T16:01:19.450Z,38.44
2019-04-16T16:04:11.410Z,38.46
2019-04-16T16:06:52.292Z,38.38
2019-04-16T16:09:41.817Z,38.72
2019-04-16T16:12:14.183Z,38.76
2019-04-16T16:14:44.558Z,38.83
2019-04-16T16:17:14.889Z,38.92
2019-04-16T16:19:45.360Z,38.96
2019-04-16T16:22:15.580Z,39.08
2019-04-16T16:24:45.818Z,38.98
2019-04-16T16:27:16.102Z,39.19
2019-04-16T16:29:46.660Z,39.13
2019-04-16T16:32:17.295Z,39.18
2019-04-16T16:34:49.880Z,39.37
2019-04-16T16:37:20.211Z,39.62
2019-04-16T16:39:50.687Z,39.68
2019-04-16T16:42:20.988Z,39.59
2019-04-16T16:44:51.228Z,39.62
2019-04-16T16:47:40.784Z,39.67
2019-04-16T16:50:17.185Z,39.81
2019-04-16T16:53:06.501Z,39.75
2019-04-16T16:55:39.998Z,39.92
2019-04-16T16:58:41.632Z,39.86
2019-04-16T17:01:38.132Z,39.79
2019-04-16T17:04:28.239Z,40.04
2019-04-16T17:06:58.787Z,40.10
2019-04-16T17:09:34.718Z,40.18
2019-04-16T17:12:05.101Z,40.18
2019-04-16T17:14:37.494Z,40.20
2019-04-16T17:17:14.329Z,40.34
2019-04-16T17:19:40.142Z,40.40
2019-04-16T17:22:10.428Z,40.35
2019-04-16T17:24:40.818Z,40.56
2019-04-16T17:27:11.100Z,40.57
2019-04-16T17:29:41.344Z,40.51
2019-04-16T17:32:11.657Z,40.76
2019-04-16T17:34:42.018Z,40.52
2019-04-16T17:37:12.342Z,40.55
2019-04-16T17:39:51.924Z,40.63
2019-04-16T17:42:27.619Z,40.68
2019-04-16T17:45:26.042Z,40.73
2019-04-16T17:48:14.316Z,40.78
2019-04-16T17:51:03.218Z,40.71
2019-04-16T17:53:56.032Z,40.65
2019-04-16T17:56:51.899Z,40.71
2019-04-16T17:59:50.940Z,40.72
2019-04-16T18:02:47.178Z,40.76
2019-04-16T18:05:45.522Z,40.65
2019-04-16T18:08:26.520Z,40.77
2019-04-16T18:11:19.735Z,40.79
2019-04-16T18:14:11.467Z,40.83
2019-04-16T18:16:54.126Z,40.83
2019-04-16T18:19:41.169Z,40.95
2019-04-16T18:22:41.971Z,41.06
2019-04-16T18:25:28.799Z,40.87
2019-04-16T18:28:05.418Z,40.19
2019-04-16T18:30:53.369Z,39.82
2019-04-16T18:33:48.637Z,40.28
2019-04-16T18:36:28.119Z,40.52
2019-04-16T18:39:15.898Z,40.61
2019-04-16T18:41:49.701Z,40.69
2019-04-16T18:44:37.669Z,40.70
2019-04-16T18:47:35.728Z,40.78
2019-04-16T18:50:09.637Z,40.66
2019-04-16T18:52:40.009Z,40.88
2019-04-16T18:55:10.841Z,40.81
2019-04-16T18:57:41.285Z,40.80
2019-04-16T19:00:32.160Z,40.75
2019-04-16T19:03:03.031Z,40.89
2019-04-16T19:05:33.356Z,40.95
2019-04-16T19:08:05.851Z,40.99
2019-04-16T19:10:36.438Z,41.04
2019-04-16T19:13:11.272Z,41.01
2019-04-16T19:15:39.304Z,41.22
2019-04-16T19:18:19.554Z,41.14
2019-04-16T19:20:42.831Z,41.20
2019-04-16T19:23:13.173Z,41.15
2019-04-16T19:25:43.720Z,41.24
2019-04-16T19:28:14.331Z,41.20
2019-04-16T19:30:45.757Z,41.21
2019-04-16T19:33:17.466Z,41.26
2019-04-16T19:35:51.032Z,41.24
2019-04-16T19:38:21.365Z,41.34
2019-04-16T19:40:51.921Z,41.35
2019-04-16T19:43:22.518Z,41.37
2019-04-16T19:45:53.454Z,41.44
2019-04-16T19:48:35.484Z,41.37
2019-04-16T19:50:56.662Z,41.34
2019-04-16T19:53:27.303Z,41.37
2019-04-16T19:55:57.858Z,41.48
2019-04-16T19:58:28.360Z,41.44
2019-04-16T20:00:59.211Z,41.42
2019-04-16T20:03:31.154Z,41.42
2019-04-16T20:06:03.111Z,41.45
2019-04-16T20:08:39.572Z,41.51
2019-04-16T20:11:09.262Z,41.44
2019-04-16T20:13:40.550Z,41.45
2019-04-16T20:16:12.590Z,41.57
2019-04-16T20:18:51.073Z,41.58
2019-04-16T20:21:16.749Z,41.63
2019-04-16T20:23:47.307Z,41.64
2019-04-16T20:26:18.057Z,41.67
2019-04-16T20:28:50.879Z,41.63
2019-04-16T20:31:21.220Z,41.50
2019-04-16T20:33:51.653Z,41.55
2019-04-16T20:36:23.407Z,41.47
2019-04-16T20:38:55.538Z,41.52
2019-04-16T20:41:25.860Z,41.54
2019-04-16T20:43:56.375Z,41.57
2019-04-16T20:46:26.653Z,41.49
2019-04-16T20:49:07.590Z,41.62
2019-04-16T20:51:29.346Z,41.99
2019-04-16T20:53:59.657Z,41.96
2019-04-16T20:56:30.004Z,42.21
2019-04-16T20:59:03.467Z,42.23
2019-04-16T21:01:37.198Z,42.19
2019-04-16T21:04:06.273Z,42.24
2019-04-16T21:06:40.528Z,42.29
2019-04-16T21:09:08.552Z,42.14
2019-04-16T21:11:41.698Z,42.35
2019-04-16T21:14:12.109Z,42.35
2019-04-16T21:16:42.422Z,42.39
2019-04-16T21:19:22.956Z,42.48
2019-04-16T21:21:44.682Z,42.20
2019-04-16T21:24:15.108Z,42.11
2019-04-16T21:26:45.413Z,42.41
2019-04-16T21:29:26.289Z,42.69
2019-04-16T21:32:01.141Z,42.94
2019-04-16T21:34:35.057Z,43.93
2019-04-16T21:37:16.136Z,43.42
2019-04-16T21:39:51.387Z,44.18
2019-04-16T21:42:21.711Z,44.25
2019-04-16T21:44:51.965Z,44.36
2019-04-16T21:47:23.688Z,44.65
2019-04-16T21:49:54.726Z,45.26
2019-04-16T21:52:25.088Z,45.54
2019-04-16T21:54:55.578Z,45.84
2019-04-16T21:57:26.014Z,45.73
2019-04-16T21:59:58.259Z,45.99
2019-04-16T22:02:34.569Z,45.44
2019-04-16T22:05:03.546Z,45.84
2019-04-16T22:07:34.958Z,45.96
2019-04-16T22:10:05.304Z,45.67
2019-04-16T22:12:35.590Z,45.95
2019-04-16T22:15:06.138Z,45.60
2019-04-16T22:17:42.385Z,45.73
2019-04-16T22:20:13.084Z,45.74
2019-04-16T22:22:43.648Z,45.70
2019-04-16T22:25:15.277Z,45.62
2019-04-16T22:27:45.561Z,45.68
2019-04-16T22:30:19.155Z,45.62
2019-04-16T22:32:48.140Z,45.63
2019-04-16T22:35:18.495Z,45.79
2019-04-16T22:37:48.816Z,45.58
2019-04-16T22:40:40.827Z,45.46
2019-04-16T22:43:32.808Z,45.69
2019-04-16T22:46:25.004Z,45.58
2019-04-16T22:48:56.636Z,45.56
2019-04-16T22:51:26.945Z,45.36
2019-04-16T22:53:57.679Z,45.67
2019-04-16T22:56:41.713Z,45.30
2019-04-16T22:59:12.058Z,45.48
2019-04-16T23:01:44.869Z,45.21
2019-04-16T23:04:15.772Z,45.27
2019-04-16T23:06:46.156Z,45.37
2019-04-16T23:09:17.248Z,45.24
2019-04-16T23:11:48.173Z,45.27
2019-04-16T23:14:18.639Z,45.45
2019-04-16T23:16:48.885Z,45.48
2019-04-16T23:19:20.525Z,45.58
2019-04-16T23:21:51.158Z,45.32
2019-04-16T23:24:23.498Z,45.56
2019-04-16T23:26:55.914Z,45.38
2019-04-16T23:29:27.072Z,45.33
2019-04-16T23:31:57.620Z,45.38
2019-04-16T23:34:27.939Z,45.45
2019-04-16T23:36:58.686Z,45.40
2019-04-16T23:39:30.016Z,45.24
2019-04-16T23:42:00.655Z,45.38
2019-04-16T23:44:44.768Z,45.32
2019-04-16T23:47:46.034Z,45.46
2019-04-16T23:50:50.664Z,45.28
2019-04-16T23:53:34.328Z,45.31
2019-04-16T23:56:29.483Z,45.04
2019-04-16T23:59:22.426Z,45.23
